Time;durP1;ratioP1;P1;durP2;ratioP2;P2;SDS_P1;SDS_P2;PMS_P1;PMS_P2;Temp;Humidity;BMP_temperature;BMP_pressure;BME280_temperature;BME280_humidity;BME280_pressure;Samples;Min_cycle;Max_cycle;Signal;HPM_P1;HPM_P2
2021/04/26 00:02:09;;;;;;;5.28;2.70;;;;;;;17.67;67.23;99581.09;4964156;28;20047;-69
2021/04/26 00:04:36;;;;;;;7.00;2.78;;;;;;;17.63;66.91;99577.34;4952192;28;20061;-68
2021/04/26 00:07:02;;;;;;;4.55;2.15;;;;;;;17.73;66.65;99593.81;4968360;28;20057;-67
2021/04/26 00:09:28;;;;;;;5.32;2.47;;;;;;;17.70;66.82;99583.22;4972168;28;20083;-69
2021/04/26 00:11:55;;;;;;;5.30;2.03;;;;;;;17.74;66.89;99587.00;4966159;28;20042;-67
2021/04/26 00:14:21;;;;;;;5.47;3.05;;;;;;;17.73;66.62;99596.63;4965207;28;20051;-68
2021/04/26 00:16:51;;;;;;;4.63;2.30;;;;;;;17.72;66.48;99586.53;4965738;28;20063;-68
2021/04/26 00:19:17;;;;;;;7.68;2.67;;;;;;;17.36;66.76;99530.84;4965834;28;20078;-68
2021/04/26 00:21:43;;;;;;;6.40;3.03;;;;;;;17.64;67.03;99584.66;4959541;28;20118;-68
2021/04/26 00:24:10;;;;;;;7.30;2.92;;;;;;;17.58;66.69;99580.41;4960886;28;20419;-68
2021/04/26 00:26:36;;;;;;;4.45;2.45;;;;;;;17.40;67.06;99562.00;4963817;28;20054;-67
2021/04/26 00:29:03;;;;;;;6.05;3.92;;;;;;;17.36;67.02;99566.72;4963342;28;20054;-67
2021/04/26 00:31:29;;;;;;;6.03;2.63;;;;;;;17.49;67.04;99565.56;4965936;28;20528;-68
2021/04/26 00:33:56;;;;;;;5.30;2.50;;;;;;;17.39;67.19;99557.56;4952577;28;20054;-66
2021/04/26 00:36:24;;;;;;;6.63;2.70;;;;;;;17.40;66.85;99557.22;4961065;28;20054;-67
2021/04/26 00:38:50;;;;;;;4.97;2.50;;;;;;;17.54;67.21;99573.81;4964964;28;20043;-68
2021/04/26 00:41:16;;;;;;;4.30;2.28;;;;;;;17.33;67.12;99545.66;4954451;28;20050;-67
2021/04/26 00:43:43;;;;;;;9.00;2.75;;;;;;;17.43;67.16;99564.13;4963539;28;20058;-70
2021/04/26 00:46:11;;;;;;;6.50;2.92;;;;;;;17.39;67.55;99566.03;4958757;28;20515;-70
2021/04/26 00:48:38;;;;;;;5.22;3.08;;;;;;;17.18;67.62;99544.34;4963676;28;20313;-70
2021/04/26 00:51:04;;;;;;;5.88;3.30;;;;;;;17.08;67.91;99539.16;4954733;28;20043;-70
2021/04/26 00:53:34;;;;;;;6.00;3.20;;;;;;;17.08;67.94;99547.63;4970102;28;20715;-71
2021/04/26 00:56:05;;;;;;;5.10;2.10;;;;;;;17.02;68.23;99554.66;4957618;28;20139;-71
2021/04/26 00:58:31;;;;;;;;;;;;;;;16.93;68.58;99542.66;4967683;28;20050;-71
2021/04/26 01:00:57;;;;;;;7.85;2.90;;;;;;;16.79;68.52;99543.78;4958134;28;20314;-70
2021/04/26 01:03:24;;;;;;;4.53;2.60;;;;;;;16.74;69.13;99541.16;4959909;28;20066;-72
2021/04/26 01:05:50;;;;;;;3.45;2.22;;;;;;;16.66;69.09;99530.78;4958512;28;20094;-71
2021/04/26 01:08:17;;;;;;;4.40;2.63;;;;;;;16.76;68.96;99538.00;4960677;28;20046;-72
2021/04/26 01:10:43;;;;;;;7.60;2.85;;;;;;;16.77;68.76;99534.84;4962653;28;20043;-73
2021/04/26 01:13:15;;;;;;;6.47;3.15;;;;;;;16.77;68.89;99537.66;4959513;28;20558;-76
2021/04/26 01:16:00;;;;;;;5.32;2.47;;;;;;;16.72;69.15;99537.03;4963635;28;20574;-70
2021/04/26 01:18:33;;;;;;;8.65;2.90;;;;;;;16.70;68.90;99539.38;4973080;28;20050;-67
2021/04/26 01:21:18;;;;;;;6.55;2.97;;;;;;;16.68;69.45;99531.22;4961560;28;20500;-68
2021/04/26 01:24:06;;;;;;;6.20;3.25;;;;;;;16.69;69.06;99527.25;4963211;28;20456;-67
2021/04/26 01:26:41;;;;;;;6.13;3.25;;;;;;;16.67;69.22;99534.41;4964451;28;20047;-66
2021/04/26 01:29:24;;;;;;;4.53;2.45;;;;;;;16.61;69.52;99516.06;4967015;28;20516;-67
2021/04/26 01:31:53;;;;;;;8.70;3.15;;;;;;;16.62;69.35;99527.00;4961478;28;20049;-67
2021/04/26 01:34:22;;;;;;;6.35;2.58;;;;;;;16.63;69.59;99525.81;4965875;28;20407;-69
2021/04/26 01:36:49;;;;;;;9.67;3.17;;;;;;;16.64;69.82;99529.47;4966011;28;20050;-69
2021/04/26 01:39:17;;;;;;;6.18;2.53;;;;;;;16.63;69.25;99528.66;4967743;28;20050;-70
2021/04/26 01:41:45;;;;;;;6.63;2.80;;;;;;;16.47;69.72;99510.72;4961333;28;20046;-70
2021/04/26 01:44:12;;;;;;;3.30;1.77;;;;;;;16.35;70.55;99523.59;4957852;28;20126;-71
2021/04/26 01:46:43;;;;;;;7.43;2.50;;;;;;;16.32;70.16;99513.00;4960872;28;20515;-68
2021/04/26 01:49:11;;;;;;;8.00;2.72;;;;;;;16.32;70.32;99510.19;4969731;28;20126;-68
2021/04/26 01:51:40;;;;;;;6.22;2.22;;;;;;;16.24;70.29;99498.97;4959398;28;20086;-68
2021/04/26 01:54:07;;;;;;;6.93;2.60;;;;;;;16.26;70.28;99514.38;4959940;28;20064;-68
2021/04/26 01:56:35;;;;;;;4.00;1.95;;;;;;;16.10;70.70;99496.44;4968375;28;20055;-68
2021/04/26 01:59:03;;;;;;;3.53;2.47;;;;;;;16.21;70.88;99508.97;4956340;28;20481;-68
2021/04/26 02:01:31;;;;;;;3.43;2.00;;;;;;;16.01;70.85;99476.00;4956984;28;20046;-67
2021/04/26 02:04:04;;;;;;;6.72;2.28;;;;;;;16.01;71.00;99490.06;4957054;28;20054;-70
2021/04/26 02:06:32;;;;;;;6.22;2.10;;;;;;;16.00;71.75;99499.66;4964367;28;20082;-69
2021/04/26 02:09:00;;;;;;;3.73;1.97;;;;;;;15.86;72.00;99500.78;4968816;28;20121;-70
2021/04/26 02:11:27;;;;;;;2.57;1.83;;;;;;;15.53;72.60;99454.78;4968826;28;20411;-71
2021/04/26 02:13:55;;;;;;;6.17;2.17;;;;;;;15.72;72.52;99490.91;4954915;28;20126;-69
2021/04/26 02:16:22;;;;;;;3.55;2.03;;;;;;;15.78;72.48;99493.19;4960223;28;20519;-65
2021/04/26 02:18:48;;;;;;;3.53;2.40;;;;;;;15.76;72.56;99492.72;4962319;28;20046;-66
2021/04/26 02:21:15;;;;;;;4.18;2.35;;;;;;;15.69;72.48;99467.13;4962620;28;20128;-67
2021/04/26 02:23:41;;;;;;;5.70;2.10;;;;;;;15.79;72.85;99491.19;4961090;28;20097;-65
2021/04/26 02:26:08;;;;;;;4.55;2.47;;;;;;;15.61;73.10;99470.75;4963628;28;20515;-66
2021/04/26 02:28:35;;;;;;;3.70;2.20;;;;;;;15.67;72.83;99491.94;4965523;28;20065;-65
2021/04/26 02:31:01;;;;;;;5.43;2.73;;;;;;;15.71;73.05;99490.09;4955809;28;20054;-65
2021/04/26 02:33:38;;;;;;;13.13;2.30;;;;;;;15.62;73.51;99478.03;4958576;28;20066;-67
2021/04/26 02:36:16;;;;;;;6.93;2.33;;;;;;;15.69;72.98;99478.38;4963661;28;20042;-69
2021/04/26 02:38:47;;;;;;;5.37;2.77;;;;;;;15.75;72.94;99479.81;4962095;28;20480;-65
2021/04/26 02:41:16;;;;;;;4.32;2.58;;;;;;;15.68;72.93;99459.81;4964066;28;20046;-66
2021/04/26 02:43:50;;;;;;;8.07;2.33;;;;;;;15.76;72.63;99470.22;4959814;28;20430;-66
2021/04/26 02:46:22;;;;;;;4.70;2.67;;;;;;;15.79;73.09;99483.56;4965767;28;20474;-66
2021/04/26 02:48:50;;;;;;;4.13;2.50;;;;;;;15.79;72.71;99477.94;4964339;28;20047;-67
2021/04/26 02:51:21;;;;;;;7.33;3.57;;;;;;;15.76;72.67;99478.66;4959474;28;20101;-67
2021/04/26 02:53:52;;;;;;;5.18;2.72;;;;;;;15.65;72.54;99457.66;4961477;28;20058;-67
2021/04/26 02:56:20;;;;;;;6.40;2.67;;;;;;;15.66;72.95;99464.97;4966390;28;20104;-67
2021/04/26 02:58:51;;;;;;;3.90;1.85;;;;;;;15.72;72.78;99486.13;4960945;28;20051;-66
2021/04/26 03:01:18;;;;;;;8.23;3.13;;;;;;;15.76;72.92;99484.28;4959966;28;20054;-67
2021/04/26 03:03:45;;;;;;;5.77;2.67;;;;;;;15.81;72.72;99481.25;4954216;28;20094;-67
2021/04/26 03:06:13;;;;;;;6.13;2.97;;;;;;;15.80;72.78;99479.63;4967049;28;20054;-66
2021/04/26 03:08:40;;;;;;;4.73;2.10;;;;;;;15.83;72.45;99473.31;4960906;28;20039;-66
2021/04/26 03:11:12;;;;;;;5.43;2.43;;;;;;;15.77;72.48;99463.41;4958235;28;20043;-64
2021/04/26 03:13:39;;;;;;;7.67;2.60;;;;;;;15.78;72.34;99476.31;4957162;28;20444;-64
2021/04/26 03:16:06;;;;;;;6.63;2.63;;;;;;;15.72;72.71;99476.84;4965733;28;20051;-67
2021/04/26 03:18:34;;;;;;;4.50;2.30;;;;;;;15.81;72.49;99481.25;4960168;28;20047;-67
2021/04/26 03:21:07;;;;;;;5.50;2.13;;;;;;;15.57;72.47;99438.84;4959586;28;20047;-67
2021/04/26 03:23:35;;;;;;;4.23;2.27;;;;;;;15.77;72.35;99469.03;4959219;28;20061;-68
2021/04/26 03:26:05;;;;;;;4.60;2.23;;;;;;;15.50;72.50;99430.13;4955851;28;20418;-67
2021/04/26 03:28:34;;;;;;;6.68;2.88;;;;;;;15.64;72.87;99467.28;4964385;28;20385;-66
2021/04/26 03:31:02;;;;;;;6.47;2.40;;;;;;;15.67;73.00;99483.50;4964204;28;20055;-67
2021/04/26 03:33:34;;;;;;;4.63;2.97;;;;;;;15.71;72.69;99487.28;4966347;28;20051;-67
2021/04/26 03:36:05;;;;;;;7.73;3.33;;;;;;;15.72;72.97;99477.66;4964995;28;20047;-66
2021/04/26 03:38:33;;;;;;;5.77;3.53;;;;;;;15.65;72.87;99471.72;4959450;28;20488;-69
2021/04/26 03:40:59;;;;;;;4.33;2.27;;;;;;;15.52;73.03;99453.94;4957544;28;20493;-69
2021/04/26 03:43:26;;;;;;;6.20;3.20;;;;;;;15.64;72.93;99481.34;4962533;28;20043;-69
2021/04/26 03:45:56;;;;;;;3.97;1.83;;;;;;;15.61;73.37;99479.22;4956180;28;20054;-68
2021/04/26 03:48:23;;;;;;;;;;;;;;;15.58;73.28;99482.69;4958004;28;20047;-69
2021/04/26 03:50:49;;;;;;;2.63;1.43;;;;;;;15.38;73.81;99461.78;4963488;28;19922;-69
2021/04/26 03:53:15;;;;;;;3.07;1.67;;;;;;;15.59;73.32;99478.75;4960433;28;20054;-71
2021/04/26 03:55:42;;;;;;;5.40;2.30;;;;;;;15.51;73.62;99482.41;4960725;28;20047;-66
2021/04/26 03:58:08;;;;;;;6.03;2.07;;;;;;;15.52;73.63;99481.25;4964403;28;20073;-65
2021/04/26 04:00:35;;;;;;;3.53;2.50;;;;;;;15.45;73.61;99455.63;4965432;28;20084;-64
2021/04/26 04:03:09;;;;;;;8.47;2.40;;;;;;;15.49;73.46;99457.44;4955247;28;20473;-65
2021/04/26 04:05:37;;;;;;;3.50;2.23;;;;;;;15.60;73.17;99469.13;4963718;28;20473;-66
2021/04/26 04:08:07;;;;;;;7.37;2.70;;;;;;;15.58;72.99;99449.75;4959083;28;20508;-64
2021/04/26 04:10:34;;;;;;;4.18;2.72;;;;;;;15.59;72.57;99436.53;4959990;28;20066;-64
2021/04/26 04:13:00;;;;;;;5.30;2.23;;;;;;;15.70;72.44;99446.25;4961237;28;20170;-65
2021/04/26 04:15:27;;;;;;;3.78;2.17;;;;;;;15.75;72.36;99445.19;4961629;28;20424;-65
2021/04/26 04:17:53;;;;;;;6.07;2.37;;;;;;;15.48;72.13;99402.31;4958137;28;20058;-64
2021/04/26 04:20:19;;;;;;;3.27;2.23;;;;;;;15.76;72.26;99449.66;4960762;28;20069;-65
2021/04/26 04:22:46;;;;;;;3.93;2.40;;;;;;;15.61;72.46;99443.44;4961232;28;20043;-66
2021/04/26 04:25:12;;;;;;;5.40;2.20;;;;;;;15.53;72.56;99435.91;4959828;28;20126;-65
2021/04/26 04:27:39;;;;;;;6.63;2.40;;;;;;;15.48;72.33;99432.44;4961812;28;20054;-65
2021/04/26 04:30:08;;;;;;;6.83;2.80;;;;;;;15.56;72.30;99437.22;4955846;28;20050;-64
2021/04/26 04:32:34;;;;;;;4.53;1.87;;;;;;;15.51;72.46;99443.03;4964412;28;20051;-70
2021/04/26 04:35:01;;;;;;;5.10;2.57;;;;;;;15.54;72.41;99456.41;4956565;28;20047;-66
2021/04/26 04:37:27;;;;;;;6.37;2.23;;;;;;;15.50;72.48;99453.44;4937971;28;20248;-66
2021/04/26 04:39:54;;;;;;;4.23;2.17;;;;;;;15.41;72.37;99456.31;4960505;28;20118;-66
2021/04/26 04:42:20;;;;;;;5.53;2.80;;;;;;;15.27;72.49;99436.03;4963521;28;20055;-67
2021/04/26 04:44:47;;;;;;;5.63;2.40;;;;;;;15.30;72.62;99451.41;4957482;28;20058;-68
2021/04/26 04:47:13;;;;;;;5.80;2.50;;;;;;;15.16;72.76;99441.22;4965686;28;20504;-67
2021/04/26 04:49:39;;;;;;;5.53;2.30;;;;;;;15.06;73.06;99427.53;4967225;28;20445;-73
2021/04/26 04:52:06;;;;;;;4.13;2.50;;;;;;;15.09;73.08;99442.91;4964497;28;20047;-68
2021/04/26 04:54:32;;;;;;;7.27;2.47;;;;;;;15.07;72.88;99450.84;4960732;28;20046;-68
2021/04/26 04:56:59;;;;;;;4.73;2.77;;;;;;;14.95;73.09;99436.72;4968653;28;20051;-64
2021/04/26 04:59:26;;;;;;;5.57;2.77;;;;;;;14.91;73.29;99448.63;4965711;28;20130;-66
2021/04/26 05:01:52;;;;;;;6.83;2.37;;;;;;;14.83;73.48;99463.50;4963816;28;20049;-65
2021/04/26 05:04:18;;;;;;;4.93;1.87;;;;;;;14.77;73.97;99467.69;4963717;28;20422;-65
2021/04/26 05:06:44;;;;;;;5.20;1.67;;;;;;;14.71;74.21;99471.84;4968185;28;20141;-66
2021/04/26 05:09:11;;;;;;;4.47;2.50;;;;;;;14.60;74.30;99459.31;4962540;28;20051;-67
2021/04/26 05:11:37;;;;;;;10.87;2.40;;;;;;;14.52;74.48;99457.31;4974204;28;20403;-67
2021/04/26 05:14:04;;;;;;;8.80;1.93;;;;;;;14.56;74.46;99469.53;4963178;28;20043;-67
2021/04/26 05:16:32;;;;;;;5.23;2.20;;;;;;;14.59;74.45;99464.06;4963829;28;20043;-68
2021/04/26 05:19:00;;;;;;;4.33;2.50;;;;;;;14.37;74.27;99447.41;4959341;28;20047;-69
2021/04/26 05:21:27;;;;;;;3.73;2.27;;;;;;;14.57;74.12;99474.84;4963068;28;20043;-65
2021/04/26 05:23:55;;;;;;;4.50;2.33;;;;;;;14.54;74.34;99483.09;4960770;28;20051;-64
2021/04/26 05:26:22;;;;;;;6.57;2.57;;;;;;;14.48;74.55;99467.56;4960768;28;20048;-65
2021/04/26 05:28:48;;;;;;;8.10;2.73;;;;;;;14.50;74.11;99466.09;4962428;28;20198;-66
2021/04/26 05:31:14;;;;;;;6.23;2.57;;;;;;;14.55;74.00;99471.53;4956752;28;20044;-66
2021/04/26 05:33:41;;;;;;;6.07;2.70;;;;;;;14.71;73.59;99483.06;4969010;28;20043;-66
2021/04/26 05:36:07;;;;;;;6.43;2.53;;;;;;;14.76;73.47;99477.25;4962001;28;20047;-66
2021/04/26 05:38:33;;;;;;;4.93;2.90;;;;;;;14.87;73.22;99481.38;4965476;28;20043;-66
2021/04/26 05:40:59;;;;;;;3.93;2.83;;;;;;;14.89;73.25;99484.66;4967496;28;20049;-67
2021/04/26 05:43:26;;;;;;;10.17;2.93;;;;;;;14.96;72.89;99484.16;4951560;28;20112;-65
2021/04/26 05:45:53;;;;;;;9.77;2.97;;;;;;;15.01;72.54;99474.69;4965088;28;20068;-67
2021/04/26 05:48:19;;;;;;;4.63;2.57;;;;;;;15.15;72.28;99495.00;4965279;28;20070;-78
2021/04/26 05:50:45;;;;;;;8.73;2.80;;;;;;;15.15;72.22;99486.56;4966499;28;20043;-71
2021/04/26 05:53:14;;;;;;;12.70;3.57;;;;;;;15.21;71.99;99492.81;4963723;28;20051;-72
2021/04/26 05:55:40;;;;;;;8.23;3.13;;;;;;;15.23;72.15;99494.13;4965867;28;20408;-64
2021/04/26 05:58:07;;;;;;;5.03;3.07;;;;;;;15.27;72.06;99503.53;4963853;28;20411;-65
2021/04/26 06:00:36;;;;;;;4.70;2.67;;;;;;;15.25;71.92;99500.25;4961023;28;20066;-70
2021/04/26 06:03:02;;;;;;;7.47;2.97;;;;;;;15.27;72.15;99502.72;4958424;28;20039;-68
2021/04/26 06:05:28;;;;;;;6.57;3.63;;;;;;;15.32;71.94;99500.56;4965996;28;20503;-65
2021/04/26 06:07:55;;;;;;;8.80;3.30;;;;;;;15.30;72.11;99488.81;4957942;28;20050;-68
2021/04/26 06:10:21;;;;;;;5.77;2.83;;;;;;;15.38;71.95;99492.72;4964455;28;20050;-66
2021/04/26 06:12:47;;;;;;;4.70;2.90;;;;;;;15.43;71.84;99486.09;4962179;28;20139;-65
2021/04/26 06:15:13;;;;;;;5.73;3.47;;;;;;;15.61;71.83;99498.91;4966564;28;20054;-67
2021/04/26 06:17:40;;;;;;;5.80;4.00;;;;;;;15.68;72.06;99504.84;4957337;28;20046;-66
2021/04/26 06:20:06;;;;;;;6.67;3.83;;;;;;;15.77;71.99;99510.44;4962939;28;20043;-65
2021/04/26 06:22:33;;;;;;;6.20;3.70;;;;;;;15.81;72.13;99509.41;4960568;28;20824;-66
2021/04/26 06:24:59;;;;;;;6.77;3.30;;;;;;;15.92;72.19;99503.38;4954944;28;20054;-65
2021/04/26 06:27:26;;;;;;;9.03;3.73;;;;;;;16.13;71.79;99515.47;4960073;28;20039;-62
2021/04/26 06:29:52;;;;;;;6.27;3.30;;;;;;;16.26;71.84;99503.09;4962577;28;20039;-65
2021/04/26 06:32:18;;;;;;;7.60;3.43;;;;;;;16.56;71.44;99505.84;4967790;28;20058;-65
2021/04/26 06:34:45;;;;;;;7.85;3.22;;;;;;;16.90;71.24;99518.78;4959211;28;20039;-66
2021/04/26 06:37:14;;;;;;;6.03;4.10;;;;;;;17.19;70.68;99517.78;4963455;28;21004;-66
2021/04/26 06:39:41;;;;;;;6.97;3.13;;;;;;;17.55;70.11;99519.00;4956975;28;20151;-64
2021/04/26 06:42:07;;;;;;;8.27;3.15;;;;;;;17.82;69.65;99525.16;4956384;28;20304;-66
2021/04/26 06:44:33;;;;;;;6.65;3.22;;;;;;;18.08;69.12;99519.91;4958333;28;20057;-65
2021/04/26 06:47:01;;;;;;;5.55;3.20;;;;;;;18.30;68.59;99514.94;4961079;28;20105;-64
2021/04/26 06:49:28;;;;;;;3.95;2.60;;;;;;;18.23;68.08;99526.84;4958774;28;20102;-66
2021/04/26 06:51:54;;;;;;;5.60;3.42;;;;;;;17.94;67.85;99519.47;4960219;28;20053;-65
2021/04/26 06:54:20;;;;;;;4.05;2.45;;;;;;;17.40;67.50;99494.28;4942572;28;20065;-66
2021/04/26 06:56:47;;;;;;;6.75;2.70;;;;;;;17.34;67.53;99513.47;4962761;28;20047;-64
2021/04/26 06:59:13;;;;;;;5.78;3.33;;;;;;;17.07;67.67;99506.50;4962884;28;20043;-64
2021/04/26 07:01:39;;;;;;;7.35;2.50;;;;;;;16.87;68.12;99511.03;4956398;28;20049;-66
2021/04/26 07:04:08;;;;;;;6.65;2.58;;;;;;;16.73;68.09;99511.28;4955081;28;20054;-65
2021/04/26 07:06:35;;;;;;;9.23;2.72;;;;;;;16.69;67.84;99490.63;4961054;28;20074;-65
2021/04/26 07:09:04;;;;;;;6.13;2.80;;;;;;;16.96;67.67;99500.47;4963892;28;20047;-65
2021/04/26 07:11:31;;;;;;;7.15;3.38;;;;;;;17.19;67.22;99512.13;4962440;28;20054;-66
2021/04/26 07:13:57;;;;;;;5.95;2.85;;;;;;;17.31;66.77;99508.53;4965688;28;20057;-65
2021/04/26 07:16:26;;;;;;;7.90;2.75;;;;;;;17.31;66.90;99507.69;4970726;28;20117;-66
2021/04/26 07:18:53;;;;;;;6.97;3.28;;;;;;;17.41;66.27;99516.53;4965709;28;20051;-65
2021/04/26 07:21:19;;;;;;;13.10;3.53;;;;;;;17.47;66.29;99519.91;4957410;28;20047;-66
2021/04/26 07:23:46;;;;;;;6.53;3.20;;;;;;;17.80;66.37;99525.47;4953691;28;20079;-67
2021/04/26 07:26:12;;;;;;;5.13;2.47;;;;;;;18.26;65.22;99514.00;4944281;28;20051;-66
2021/04/26 07:28:39;;;;;;;5.30;2.25;;;;;;;18.68;64.67;99520.91;4955705;28;20051;-65
2021/04/26 07:31:05;;;;;;;7.40;2.90;;;;;;;19.00;64.21;99506.84;4954151;28;20102;-65
2021/04/26 07:33:32;;;;;;;3.90;2.45;;;;;;;19.45;63.48;99516.13;4953356;28;20130;-65
2021/04/26 07:36:01;;;;;;;6.00;2.53;;;;;;;19.74;63.00;99515.69;4953854;28;20043;-65
2021/04/26 07:38:28;;;;;;;4.07;2.28;;;;;;;20.06;62.31;99529.78;4953767;28;20051;-66
2021/04/26 07:40:54;;;;;;;5.43;2.35;;;;;;;20.36;61.54;99522.38;4953799;28;20039;-64
2021/04/26 07:43:21;;;;;;;6.00;2.65;;;;;;;20.78;60.97;99532.19;4953763;28;20056;-65
2021/04/26 07:45:47;;;;;;;6.22;2.35;;;;;;;21.02;60.31;99528.19;4957836;28;20047;-66
2021/04/26 07:48:13;;;;;;;4.85;2.50;;;;;;;21.28;59.21;99531.13;4961274;28;20063;-65
2021/04/26 07:50:41;;;;;;;4.05;2.55;;;;;;;21.48;58.51;99528.28;4953522;28;20510;-65
2021/04/26 07:53:10;;;;;;;4.55;2.17;;;;;;;21.77;57.76;99530.38;4953520;28;20054;-65
2021/04/26 07:55:38;;;;;;;4.27;2.63;;;;;;;21.92;57.03;99517.22;4956420;28;20101;-67
2021/04/26 07:58:05;;;;;;;9.02;2.33;;;;;;;22.33;56.10;99540.22;4955075;28;20559;-65
2021/04/26 08:00:31;;;;;;;5.80;2.10;;;;;;;22.54;55.38;99527.47;4952999;28;20130;-66
2021/04/26 08:02:59;;;;;;;6.28;2.42;;;;;;;22.74;54.50;99531.81;4959508;28;20055;-65
2021/04/26 08:05:26;;;;;;;4.13;2.10;;;;;;;22.84;53.99;99539.66;4959524;28;20051;-64
2021/04/26 08:07:53;;;;;;;4.18;2.35;;;;;;;23.03;53.75;99543.56;4953122;28;20044;-66
2021/04/26 08:10:20;;;;;;;3.50;2.50;;;;;;;23.17;52.49;99532.31;4954003;28;20051;-66
2021/04/26 08:12:46;;;;;;;3.90;2.42;;;;;;;23.39;52.17;99539.88;4955728;28;20055;-66
2021/04/26 08:15:13;;;;;;;7.35;1.92;;;;;;;23.55;51.89;99535.94;4952870;28;20053;-65
2021/04/26 08:17:41;;;;;;;4.18;2.20;;;;;;;23.60;51.94;99542.13;4953011;28;20047;-66
2021/04/26 08:20:09;;;;;;;3.72;2.05;;;;;;;23.56;52.11;99526.19;4954202;28;20044;-66
2021/04/26 08:22:35;;;;;;;6.43;2.53;;;;;;;23.57;51.18;99533.53;4960215;28;20047;-66
2021/04/26 08:25:05;;;;;;;4.32;2.53;;;;;;;23.58;51.19;99501.78;4957303;28;20412;-68
2021/04/26 08:27:33;;;;;;;6.43;2.00;;;;;;;23.99;50.43;99543.69;4964089;28;21046;-67
2021/04/26 08:30:00;;;;;;;4.88;2.58;;;;;;;24.04;49.71;99535.56;4956950;28;20050;-66
2021/04/26 08:32:27;;;;;;;3.85;2.60;;;;;;;24.19;50.03;99550.75;4961295;28;20043;-66
2021/04/26 08:34:54;;;;;;;3.83;2.17;;;;;;;24.20;49.06;99543.81;4957608;28;20058;-65
2021/04/26 08:37:20;;;;;;;6.05;2.25;;;;;;;24.23;49.24;99557.28;4961886;28;20047;-65
2021/04/26 08:39:46;;;;;;;8.65;3.47;;;;;;;24.13;49.17;99543.78;4957390;28;20523;-64
2021/04/26 08:42:17;;;;;;;5.10;2.40;;;;;;;24.20;49.28;99546.66;4957312;28;20054;-66
2021/04/26 08:44:43;;;;;;;5.05;2.58;;;;;;;23.96;49.22;99533.06;4956863;28;20043;-66
2021/04/26 08:47:10;;;;;;;14.50;4.22;;;;;;;23.88;48.94;99550.13;4958206;28;20061;-64
2021/04/26 08:49:37;;;;;;;7.50;3.13;;;;;;;23.91;48.90;99544.84;4956772;28;20049;-65
2021/04/26 08:52:12;;;;;;;12.55;4.53;;;;;;;24.11;48.87;99546.22;4958290;28;20050;-66
2021/04/26 08:54:39;;;;;;;3.38;2.20;;;;;;;24.27;48.47;99548.75;4956513;28;20050;-66
2021/04/26 08:57:05;;;;;;;10.18;3.83;;;;;;;24.57;47.84;99545.69;4955950;28;20389;-65
2021/04/26 08:59:32;;;;;;;5.68;3.25;;;;;;;24.73;47.20;99553.94;4955948;28;20059;-66
2021/04/26 09:02:04;;;;;;;4.63;2.05;;;;;;;24.68;47.50;99546.56;4958445;28;20046;-66
2021/04/26 09:04:36;;;;;;;5.95;1.83;;;;;;;24.47;47.56;99550.13;4956527;28;20118;-65
2021/04/26 09:07:05;;;;;;;3.47;2.00;;;;;;;24.40;47.27;99540.69;4956451;28;20043;-66
2021/04/26 09:09:40;;;;;;;3.60;2.13;;;;;;;24.42;47.26;99544.81;4958461;28;20417;-67
2021/04/26 09:12:12;;;;;;;9.88;4.03;;;;;;;24.49;47.61;99544.03;4962093;28;20075;-66
2021/04/26 09:14:49;;;;;;;10.55;3.22;;;;;;;24.43;47.28;99539.91;4955982;28;20050;-65
2021/04/26 09:17:38;;;;;;;12.32;3.97;;;;;;;24.33;46.95;99536.56;4956207;28;20053;-65
2021/04/26 09:20:14;;;;;;;6.70;2.33;;;;;;;24.22;47.41;99543.44;4956155;28;20136;-65
2021/04/26 09:22:54;;;;;;;9.13;3.10;;;;;;;24.24;46.48;99535.28;4956560;28;20083;-67
2021/04/26 09:25:34;;;;;;;4.53;2.28;;;;;;;24.28;46.76;99534.09;4955981;28;20139;-65
2021/04/26 09:28:13;;;;;;;5.78;2.03;;;;;;;24.23;46.39;99531.63;4960730;28;20058;-67
2021/04/26 09:30:41;;;;;;;6.57;2.95;;;;;;;24.25;46.29;99549.16;4956154;28;20043;-65
2021/04/26 09:33:26;;;;;;;4.05;1.65;;;;;;;24.18;46.65;99534.03;4956219;28;20054;-65
2021/04/26 09:36:01;;;;;;;9.13;2.78;;;;;;;24.17;46.24;99529.53;4955786;28;20488;-65
2021/04/26 09:38:31;;;;;;;4.30;2.05;;;;;;;24.04;46.31;99512.75;4960999;28;20122;-66
2021/04/26 09:41:16;;;;;;;9.80;3.20;;;;;;;24.29;46.15;99530.03;4956094;28;20047;-66
2021/04/26 09:44:03;;;;;;;7.72;2.95;;;;;;;24.31;46.26;99536.16;4958353;28;20083;-66
2021/04/26 09:46:42;;;;;;;4.32;1.60;;;;;;;24.69;45.53;99536.81;4948584;28;20051;-64
2021/04/26 09:49:14;;;;;;;4.97;1.83;;;;;;;25.17;44.87;99539.44;4956076;28;20090;-66
2021/04/26 09:51:49;;;;;;;3.72;2.10;;;;;;;25.35;44.07;99527.22;4955606;28;20122;-66
2021/04/26 09:54:16;;;;;;;3.45;1.60;;;;;;;25.52;43.65;99529.28;4955824;28;20059;-65
2021/04/26 09:56:45;;;;;;;3.08;1.38;;;;;;;25.48;43.30;99531.34;4955432;28;20433;-66
2021/04/26 09:59:15;;;;;;;4.90;1.73;;;;;;;25.69;43.49;99517.03;4955234;28;20051;-66
2021/04/26 10:01:43;;;;;;;4.18;1.75;;;;;;;26.04;42.60;99535.44;4960267;28;20043;-65
2021/04/26 10:04:11;;;;;;;5.40;2.35;;;;;;;25.97;42.63;99518.28;4957350;28;20126;-65
2021/04/26 10:06:39;;;;;;;7.30;1.60;;;;;;;25.66;42.36;99520.72;4955573;28;20526;-66
2021/04/26 10:09:08;;;;;;;7.90;1.90;;;;;;;25.20;43.33;99517.81;4955570;28;20047;-66
2021/04/26 10:11:37;;;;;;;3.80;1.38;;;;;;;24.81;44.31;99516.44;4958069;28;20040;-66
2021/04/26 10:14:09;;;;;;;2.92;1.80;;;;;;;24.60;43.85;99510.66;4955527;28;20047;-66
2021/04/26 10:16:44;;;;;;;3.50;1.70;;;;;;;24.48;44.73;99513.84;4955234;28;20409;-66
2021/04/26 10:19:15;;;;;;;4.50;1.73;;;;;;;24.42;44.47;99521.16;4957879;28;20055;-66
2021/04/26 10:21:53;;;;;;;3.83;1.67;;;;;;;24.21;44.61;99522.66;4955310;28;20476;-66
2021/04/26 10:24:24;;;;;;;7.47;2.67;;;;;;;24.04;44.48;99526.22;4955477;28;20416;-66
2021/04/26 10:26:51;;;;;;;3.55;1.70;;;;;;;23.81;44.76;99538.66;4954709;28;20039;-66
2021/04/26 10:29:31;;;;;;;5.05;1.95;;;;;;;23.58;45.29;99526.59;4954694;28;20066;-66
2021/04/26 10:32:15;;;;;;;4.20;1.42;;;;;;;23.34;45.49;99525.16;4958326;28;20482;-67
2021/04/26 10:34:42;;;;;;;3.53;1.77;;;;;;;23.17;45.95;99532.31;4959365;28;20046;-65
2021/04/26 10:37:16;;;;;;;3.60;1.60;;;;;;;23.00;47.03;99524.41;4955183;28;20048;-65
2021/04/26 10:40:07;;;;;;;3.75;1.65;;;;;;;22.82;48.03;99521.31;4958708;28;20047;-67
2021/04/26 10:42:44;;;;;;;4.30;1.58;;;;;;;22.67;47.92;99526.03;4960411;28;20047;-66
2021/04/26 10:45:12;;;;;;;4.68;1.88;;;;;;;22.57;47.89;99529.56;4963319;28;20043;-67
2021/04/26 10:47:40;;;;;;;7.43;1.98;;;;;;;22.41;48.24;99518.38;4961010;28;20059;-65
2021/04/26 10:50:07;;;;;;;4.30;1.98;;;;;;;22.21;48.85;99529.88;4967309;28;20444;-65
2021/04/26 10:52:36;;;;;;;4.18;2.00;;;;;;;22.11;49.01;99529.69;4960358;28;20059;-66
2021/04/26 10:55:08;;;;;;;7.80;2.10;;;;;;;22.03;49.11;99513.72;4966874;28;20042;-68
2021/04/26 10:57:39;;;;;;;5.35;2.17;;;;;;;22.12;49.39;99522.78;4961465;28;20056;-67
2021/04/26 11:00:29;;;;;;;3.28;2.10;;;;;;;22.09;49.79;99513.03;4966760;28;20045;-66
2021/04/26 11:02:56;;;;;;;4.53;2.45;;;;;;;22.13;49.97;99530.13;4964933;28;20050;-65
2021/04/26 11:05:31;;;;;;;6.35;2.78;;;;;;;22.13;49.77;99507.38;4965540;28;20129;-70
2021/04/26 11:08:03;;;;;;;4.15;1.90;;;;;;;22.27;49.67;99513.31;4965351;28;20051;-71
2021/04/26 11:10:30;;;;;;;4.93;2.20;;;;;;;22.47;49.22;99514.78;4962246;28;20494;-70
2021/04/26 11:13:18;;;;;;;7.88;2.42;;;;;;;22.58;49.15;99489.31;4966107;28;20066;-71
2021/04/26 11:15:44;;;;;;;6.25;2.47;;;;;;;22.77;48.71;99502.56;4936147;28;20047;-71
2021/04/26 11:18:14;;;;;;;8.65;2.33;;;;;;;22.93;48.65;99490.97;4958603;28;20404;-70
2021/04/26 11:20:44;;;;;;;7.75;2.00;;;;;;;23.03;48.57;99490.28;4965356;28;20154;-70
2021/04/26 11:23:43;;;;;;;8.48;2.10;;;;;;;23.25;48.57;99499.88;4962820;28;20046;-71
2021/04/26 11:26:18;;;;;;;6.75;2.45;;;;;;;23.45;47.96;99479.69;4961779;28;20047;-71
2021/04/26 11:29:13;;;;;;;4.40;1.92;;;;;;;24.00;47.97;99500.53;4960089;28;20057;-69
2021/04/26 11:31:43;;;;;;;6.93;2.47;;;;;;;24.36;47.07;99500.72;4960874;28;20118;-71
2021/04/26 11:34:11;;;;;;;5.43;1.85;;;;;;;24.60;46.37;99493.53;4960797;28;20043;-71
2021/04/26 11:36:56;;;;;;;13.15;2.05;;;;;;;25.08;45.35;99483.88;4959307;28;20047;-69
2021/04/26 11:39:36;;;;;;;4.60;1.75;;;;;;;25.10;45.42;99490.03;4962816;28;20664;-70
2021/04/26 11:42:05;;;;;;;3.75;1.42;;;;;;;25.10;44.77;99493.69;4959274;28;20055;-70
2021/04/26 11:44:33;;;;;;;4.32;1.63;;;;;;;24.97;45.25;99486.72;4962136;28;20042;-68